sensor_id;sensor_type;location;lat;lon;timestamp;P1;durP1;ratioP1;P2;durP2;ratioP2
3299;SDS011;1662;49.310;8.134;2022-11-09T00:00:07;5.80;;;5.30;;
3299;SDS011;1662;49.310;8.134;2022-11-09T00:02:33;7.13;;;6.30;;
3299;SDS011;1662;49.310;8.134;2022-11-09T00:04:59;6.10;;;5.60;;
3299;SDS011;1662;49.310;8.134;2022-11-09T00:07:25;6.00;;;5.50;;
3299;SDS011;1662;49.310;8.134;2022-11-09T00:09:50;5.13;;;4.63;;
3299;SDS011;1662;49.310;8.134;2022-11-09T00:12:16;4.70;;;4.30;;
3299;SDS011;1662;49.310;8.134;2022-11-09T00:14:43;2.60;;;2.20;;
3299;SDS011;1662;49.310;8.134;2022-11-09T00:17:09;3.23;;;3.03;;
3299;SDS011;1662;49.310;8.134;2022-11-09T00:19:35;8.32;;;7.63;;
3299;SDS011;1662;49.310;8.134;2022-11-09T00:22:01;8.75;;;7.85;;
3299;SDS011;1662;49.310;8.134;2022-11-09T00:24:26;8.53;;;7.50;;
3299;SDS011;1662;49.310;8.134;2022-11-09T00:26:52;8.73;;;7.93;;
3299;SDS011;1662;49.310;8.134;2022-11-09T00:29:18;8.73;;;7.95;;
3299;SDS011;1662;49.310;8.134;2022-11-09T00:31:44;8.88;;;7.97;;
3299;SDS011;1662;49.310;8.134;2022-11-09T00:34:10;9.45;;;7.25;;
3299;SDS011;1662;49.310;8.134;2022-11-09T00:36:35;8.63;;;6.97;;
3299;SDS011;1662;49.310;8.134;2022-11-09T00:39:01;7.53;;;6.00;;
3299;SDS011;1662;49.310;8.134;2022-11-09T00:41:29;5.90;;;5.40;;
3299;SDS011;1662;49.310;8.134;2022-11-09T00:43:55;6.10;;;5.65;;
3299;SDS011;1662;49.310;8.134;2022-11-09T00:46:20;5.23;;;4.83;;
3299;SDS011;1662;49.310;8.134;2022-11-09T00:48:46;6.23;;;5.23;;
3299;SDS011;1662;49.310;8.134;2022-11-09T00:51:12;5.30;;;4.80;;
3299;SDS011;1662;49.310;8.134;2022-11-09T00:53:38;4.60;;;4.20;;
3299;SDS011;1662;49.310;8.134;2022-11-09T00:56:08;3.95;;;3.72;;
3299;SDS011;1662;49.310;8.134;2022-11-09T00:58:36;4.00;;;3.63;;
3299;SDS011;1662;49.310;8.134;2022-11-09T01:01:12;2.70;;;2.50;;
3299;SDS011;1662;49.310;8.134;2022-11-09T01:03:40;2.20;;;1.80;;
3299;SDS011;1662;49.310;8.134;2022-11-09T01:06:08;1.90;;;1.70;;
3299;SDS011;1662;49.310;8.134;2022-11-09T01:08:43;1.50;;;1.40;;
3299;SDS011;1662;49.310;8.134;2022-11-09T01:11:10;2.03;;;1.70;;
3299;SDS011;1662;49.310;8.134;2022-11-09T01:13:36;1.58;;;1.48;;
3299;SDS011;1662;49.310;8.134;2022-11-09T01:16:03;1.70;;;1.60;;
3299;SDS011;1662;49.310;8.134;2022-11-09T01:18:31;1.50;;;1.30;;
3299;SDS011;1662;49.310;8.134;2022-11-09T01:20:57;1.60;;;1.50;;
3299;SDS011;1662;49.310;8.134;2022-11-09T01:23:22;1.52;;;1.50;;
3299;SDS011;1662;49.310;8.134;2022-11-09T01:25:48;2.28;;;1.70;;
3299;SDS011;1662;49.310;8.134;2022-11-09T01:28:20;1.70;;;1.60;;
3299;SDS011;1662;49.310;8.134;2022-11-09T01:30:46;2.33;;;2.13;;
3299;SDS011;1662;49.310;8.134;2022-11-09T01:33:12;2.85;;;2.55;;
3299;SDS011;1662;49.310;8.134;2022-11-09T01:35:38;3.63;;;2.95;;
3299;SDS011;1662;49.310;8.134;2022-11-09T01:38:06;2.80;;;2.70;;
3299;SDS011;1662;49.310;8.134;2022-11-09T01:40:33;3.00;;;2.80;;
3299;SDS011;1662;49.310;8.134;2022-11-09T01:43:15;3.50;;;3.30;;
3299;SDS011;1662;49.310;8.134;2022-11-09T01:45:44;3.60;;;3.40;;
3299;SDS011;1662;49.310;8.134;2022-11-09T01:48:33;4.10;;;3.80;;
3299;SDS011;1662;49.310;8.134;2022-11-09T01:51:09;4.57;;;3.30;;
3299;SDS011;1662;49.310;8.134;2022-11-09T01:54:02;3.90;;;3.60;;
3299;SDS011;1662;49.310;8.134;2022-11-09T01:56:29;4.30;;;4.00;;
3299;SDS011;1662;49.310;8.134;2022-11-09T01:58:58;4.75;;;4.00;;
3299;SDS011;1662;49.310;8.134;2022-11-09T02:01:25;4.60;;;4.20;;
3299;SDS011;1662;49.310;8.134;2022-11-09T02:03:53;6.40;;;5.90;;
3299;SDS011;1662;49.310;8.134;2022-11-09T02:06:26;7.82;;;6.57;;
3299;SDS011;1662;49.310;8.134;2022-11-09T02:08:53;7.72;;;7.03;;
3299;SDS011;1662;49.310;8.134;2022-11-09T02:11:21;8.70;;;7.80;;
3299;SDS011;1662;49.310;8.134;2022-11-09T02:13:50;9.80;;;8.95;;
3299;SDS011;1662;49.310;8.134;2022-11-09T02:16:20;9.90;;;8.90;;
3299;SDS011;1662;49.310;8.134;2022-11-09T02:18:48;10.52;;;9.73;;
3299;SDS011;1662;49.310;8.134;2022-11-09T02:21:17;10.10;;;9.20;;
3299;SDS011;1662;49.310;8.134;2022-11-09T02:23:43;11.10;;;10.10;;
3299;SDS011;1662;49.310;8.134;2022-11-09T02:26:18;11.07;;;10.05;;
3299;SDS011;1662;49.310;8.134;2022-11-09T02:28:45;10.50;;;9.60;;
3299;SDS011;1662;49.310;8.134;2022-11-09T02:31:12;13.32;;;12.00;;
3299;SDS011;1662;49.310;8.134;2022-11-09T02:33:41;14.27;;;12.85;;
3299;SDS011;1662;49.310;8.134;2022-11-09T02:36:07;14.73;;;13.32;;
3299;SDS011;1662;49.310;8.134;2022-11-09T02:38:33;15.20;;;13.45;;
3299;SDS011;1662;49.310;8.134;2022-11-09T02:40:59;16.60;;;14.03;;
3299;SDS011;1662;49.310;8.134;2022-11-09T02:43:26;15.35;;;13.90;;
3299;SDS011;1662;49.310;8.134;2022-11-09T02:45:52;15.80;;;14.10;;
3299;SDS011;1662;49.310;8.134;2022-11-09T02:48:18;16.88;;;14.90;;
3299;SDS011;1662;49.310;8.134;2022-11-09T02:50:46;17.67;;;15.88;;
3299;SDS011;1662;49.310;8.134;2022-11-09T02:53:12;17.65;;;15.93;;
3299;SDS011;1662;49.310;8.134;2022-11-09T02:55:37;17.40;;;15.60;;
3299;SDS011;1662;49.310;8.134;2022-11-09T02:58:03;17.58;;;15.88;;
3299;SDS011;1662;49.310;8.134;2022-11-09T03:00:29;17.10;;;15.40;;
3299;SDS011;1662;49.310;8.134;2022-11-09T03:02:55;16.08;;;14.48;;
3299;SDS011;1662;49.310;8.134;2022-11-09T03:05:21;15.70;;;14.13;;
3299;SDS011;1662;49.310;8.134;2022-11-09T03:07:47;16.60;;;14.95;;
3299;SDS011;1662;49.310;8.134;2022-11-09T03:10:13;18.83;;;15.50;;
3299;SDS011;1662;49.310;8.134;2022-11-09T03:12:38;18.15;;;16.35;;
3299;SDS011;1662;49.310;8.134;2022-11-09T03:15:05;17.75;;;15.95;;
3299;SDS011;1662;49.310;8.134;2022-11-09T03:17:32;18.58;;;16.70;;
3299;SDS011;1662;49.310;8.134;2022-11-09T03:20:01;18.85;;;16.95;;
3299;SDS011;1662;49.310;8.134;2022-11-09T03:22:27;17.52;;;15.82;;
3299;SDS011;1662;49.310;8.134;2022-11-09T03:24:53;18.40;;;16.20;;
3299;SDS011;1662;49.310;8.134;2022-11-09T03:27:19;18.17;;;16.27;;
3299;SDS011;1662;49.310;8.134;2022-11-09T03:29:45;20.90;;;16.98;;
3299;SDS011;1662;49.310;8.134;2022-11-09T03:32:10;17.48;;;15.68;;
3299;SDS011;1662;49.310;8.134;2022-11-09T03:34:38;17.40;;;15.70;;
3299;SDS011;1662;49.310;8.134;2022-11-09T03:37:04;16.50;;;14.80;;
3299;SDS011;1662;49.310;8.134;2022-11-09T03:39:29;18.00;;;16.20;;
3299;SDS011;1662;49.310;8.134;2022-11-09T03:41:55;16.77;;;15.17;;
3299;SDS011;1662;49.310;8.134;2022-11-09T03:44:23;19.98;;;17.88;;
3299;SDS011;1662;49.310;8.134;2022-11-09T03:46:52;19.15;;;16.48;;
3299;SDS011;1662;49.310;8.134;2022-11-09T03:49:18;18.40;;;16.40;;
3299;SDS011;1662;49.310;8.134;2022-11-09T03:51:46;19.00;;;17.00;;
3299;SDS011;1662;49.310;8.134;2022-11-09T03:54:11;19.77;;;17.67;;
3299;SDS011;1662;49.310;8.134;2022-11-09T03:56:37;18.85;;;16.92;;
3299;SDS011;1662;49.310;8.134;2022-11-09T03:59:05;19.70;;;16.10;;
3299;SDS011;1662;49.310;8.134;2022-11-09T04:01:30;17.52;;;15.82;;
3299;SDS011;1662;49.310;8.134;2022-11-09T04:04:01;17.77;;;16.05;;
3299;SDS011;1662;49.310;8.134;2022-11-09T04:06:27;16.70;;;15.02;;
3299;SDS011;1662;49.310;8.134;2022-11-09T04:08:52;18.87;;;16.07;;
3299;SDS011;1662;49.310;8.134;2022-11-09T04:11:18;16.67;;;14.87;;
3299;SDS011;1662;49.310;8.134;2022-11-09T04:13:44;15.80;;;14.30;;
3299;SDS011;1662;49.310;8.134;2022-11-09T04:16:11;18.48;;;16.58;;
3299;SDS011;1662;49.310;8.134;2022-11-09T04:18:39;17.85;;;16.05;;
3299;SDS011;1662;49.310;8.134;2022-11-09T04:21:05;16.42;;;14.40;;
3299;SDS011;1662;49.310;8.134;2022-11-09T04:23:30;15.32;;;13.90;;
3299;SDS011;1662;49.310;8.134;2022-11-09T04:25:56;16.05;;;14.43;;
3299;SDS011;1662;49.310;8.134;2022-11-09T04:28:23;16.52;;;14.93;;
3299;SDS011;1662;49.310;8.134;2022-11-09T04:30:49;15.60;;;14.20;;
3299;SDS011;1662;49.310;8.134;2022-11-09T04:33:14;14.73;;;13.43;;
3299;SDS011;1662;49.310;8.134;2022-11-09T04:35:41;16.73;;;15.00;;
3299;SDS011;1662;49.310;8.134;2022-11-09T04:38:07;16.33;;;14.80;;
3299;SDS011;1662;49.310;8.134;2022-11-09T04:40:35;15.70;;;14.20;;
3299;SDS011;1662;49.310;8.134;2022-11-09T04:43:05;15.23;;;13.88;;
3299;SDS011;1662;49.310;8.134;2022-11-09T04:45:34;15.00;;;13.63;;
3299;SDS011;1662;49.310;8.134;2022-11-09T04:48:01;15.73;;;14.23;;
3299;SDS011;1662;49.310;8.134;2022-11-09T04:50:30;14.80;;;13.40;;
3299;SDS011;1662;49.310;8.134;2022-11-09T04:53:03;15.20;;;13.80;;
3299;SDS011;1662;49.310;8.134;2022-11-09T04:55:36;14.13;;;12.82;;
3299;SDS011;1662;49.310;8.134;2022-11-09T04:58:02;15.25;;;13.77;;
3299;SDS011;1662;49.310;8.134;2022-11-09T05:00:28;15.38;;;13.88;;
3299;SDS011;1662;49.310;8.134;2022-11-09T05:02:54;15.90;;;14.30;;
3299;SDS011;1662;49.310;8.134;2022-11-09T05:05:22;16.88;;;15.27;;
3299;SDS011;1662;49.310;8.134;2022-11-09T05:07:48;14.93;;;13.60;;
3299;SDS011;1662;49.310;8.134;2022-11-09T05:10:16;16.17;;;14.57;;
3299;SDS011;1662;49.310;8.134;2022-11-09T05:12:42;16.88;;;15.38;;
3299;SDS011;1662;49.310;8.134;2022-11-09T05:15:07;19.20;;;17.30;;
3299;SDS011;1662;49.310;8.134;2022-11-09T05:17:33;20.43;;;18.20;;
3299;SDS011;1662;49.310;8.134;2022-11-09T05:19:59;20.20;;;18.10;;
3299;SDS011;1662;49.310;8.134;2022-11-09T05:22:24;21.33;;;19.03;;
3299;SDS011;1662;49.310;8.134;2022-11-09T05:25:11;21.67;;;19.48;;
3299;SDS011;1662;49.310;8.134;2022-11-09T05:27:37;22.90;;;20.50;;
3299;SDS011;1662;49.310;8.134;2022-11-09T05:30:02;22.80;;;20.50;;
3299;SDS011;1662;49.310;8.134;2022-11-09T05:32:31;23.20;;;20.60;;
3299;SDS011;1662;49.310;8.134;2022-11-09T05:34:59;22.55;;;20.25;;
3299;SDS011;1662;49.310;8.134;2022-11-09T05:37:25;22.73;;;20.30;;
3299;SDS011;1662;49.310;8.134;2022-11-09T05:39:50;21.95;;;19.70;;
3299;SDS011;1662;49.310;8.134;2022-11-09T05:42:16;21.15;;;19.05;;
3299;SDS011;1662;49.310;8.134;2022-11-09T05:44:42;20.20;;;18.20;;
3299;SDS011;1662;49.310;8.134;2022-11-09T05:47:07;21.40;;;19.30;;
3299;SDS011;1662;49.310;8.134;2022-11-09T05:49:33;20.50;;;18.30;;
3299;SDS011;1662;49.310;8.134;2022-11-09T05:51:58;20.03;;;18.13;;
3299;SDS011;1662;49.310;8.134;2022-11-09T05:54:24;17.98;;;16.27;;
3299;SDS011;1662;49.310;8.134;2022-11-09T05:56:50;17.15;;;15.35;;
3299;SDS011;1662;49.310;8.134;2022-11-09T05:59:15;16.87;;;15.37;;
3299;SDS011;1662;49.310;8.134;2022-11-09T06:01:41;16.60;;;15.10;;
3299;SDS011;1662;49.310;8.134;2022-11-09T06:04:07;15.43;;;13.82;;
3299;SDS011;1662;49.310;8.134;2022-11-09T06:06:33;15.38;;;13.88;;
3299;SDS011;1662;49.310;8.134;2022-11-09T06:08:58;15.15;;;13.80;;
3299;SDS011;1662;49.310;8.134;2022-11-09T06:11:24;15.93;;;14.43;;
3299;SDS011;1662;49.310;8.134;2022-11-09T06:13:53;14.73;;;13.23;;
3299;SDS011;1662;49.310;8.134;2022-11-09T06:16:19;14.40;;;13.10;;
3299;SDS011;1662;49.310;8.134;2022-11-09T06:18:45;13.38;;;12.18;;
3299;SDS011;1662;49.310;8.134;2022-11-09T06:21:10;13.37;;;12.07;;
3299;SDS011;1662;49.310;8.134;2022-11-09T06:23:36;13.32;;;12.13;;
3299;SDS011;1662;49.310;8.134;2022-11-09T06:26:05;12.75;;;11.55;;
3299;SDS011;1662;49.310;8.134;2022-11-09T06:28:33;11.50;;;10.63;;
3299;SDS011;1662;49.310;8.134;2022-11-09T06:31:00;12.50;;;11.30;;
3299;SDS011;1662;49.310;8.134;2022-11-09T06:33:31;13.10;;;12.10;;
3299;SDS011;1662;49.310;8.134;2022-11-09T06:35:58;12.18;;;11.27;;
3299;SDS011;1662;49.310;8.134;2022-11-09T06:38:24;10.30;;;9.50;;
3299;SDS011;1662;49.310;8.134;2022-11-09T06:40:53;9.98;;;9.18;;
3299;SDS011;1662;49.310;8.134;2022-11-09T06:43:20;9.07;;;8.38;;
3299;SDS011;1662;49.310;8.134;2022-11-09T06:45:45;7.90;;;7.40;;
3299;SDS011;1662;49.310;8.134;2022-11-09T06:48:14;8.20;;;7.60;;
3299;SDS011;1662;49.310;8.134;2022-11-09T06:50:39;6.53;;;6.13;;
3299;SDS011;1662;49.310;8.134;2022-11-09T06:53:06;6.22;;;5.82;;
3299;SDS011;1662;49.310;8.134;2022-11-09T06:55:34;6.15;;;5.80;;
3299;SDS011;1662;49.310;8.134;2022-11-09T06:58:08;6.03;;;5.63;;
3299;SDS011;1662;49.310;8.134;2022-11-09T07:00:44;3.90;;;3.70;;
3299;SDS011;1662;49.310;8.134;2022-11-09T07:03:12;4.28;;;3.95;;
3299;SDS011;1662;49.310;8.134;2022-11-09T07:05:38;4.32;;;4.13;;
3299;SDS011;1662;49.310;8.134;2022-11-09T07:08:04;4.05;;;3.80;;
3299;SDS011;1662;49.310;8.134;2022-11-09T07:10:30;4.45;;;4.15;;
3299;SDS011;1662;49.310;8.134;2022-11-09T07:12:56;4.40;;;4.10;;
3299;SDS011;1662;49.310;8.134;2022-11-09T07:15:22;4.60;;;4.20;;
3299;SDS011;1662;49.310;8.134;2022-11-09T07:17:51;4.30;;;4.00;;
3299;SDS011;1662;49.310;8.134;2022-11-09T07:20:21;4.55;;;4.25;;
3299;SDS011;1662;49.310;8.134;2022-11-09T07:22:50;5.40;;;5.00;;
3299;SDS011;1662;49.310;8.134;2022-11-09T07:25:16;4.90;;;4.60;;
3299;SDS011;1662;49.310;8.134;2022-11-09T07:27:41;5.33;;;5.03;;
3299;SDS011;1662;49.310;8.134;2022-11-09T07:30:09;5.60;;;5.20;;
3299;SDS011;1662;49.310;8.134;2022-11-09T07:32:36;5.82;;;5.43;;
3299;SDS011;1662;49.310;8.134;2022-11-09T07:35:02;5.70;;;5.20;;
3299;SDS011;1662;49.310;8.134;2022-11-09T07:37:29;5.72;;;5.32;;
3299;SDS011;1662;49.310;8.134;2022-11-09T07:39:55;6.15;;;5.65;;
3299;SDS011;1662;49.310;8.134;2022-11-09T07:42:21;6.20;;;5.60;;
3299;SDS011;1662;49.310;8.134;2022-11-09T07:44:47;5.60;;;5.20;;
3299;SDS011;1662;49.310;8.134;2022-11-09T07:47:13;6.30;;;5.80;;
3299;SDS011;1662;49.310;8.134;2022-11-09T07:49:40;6.40;;;5.90;;
3299;SDS011;1662;49.310;8.134;2022-11-09T07:52:05;6.40;;;5.80;;
3299;SDS011;1662;49.310;8.134;2022-11-09T07:54:31;5.47;;;5.07;;
3299;SDS011;1662;49.310;8.134;2022-11-09T07:56:57;6.00;;;5.50;;
3299;SDS011;1662;49.310;8.134;2022-11-09T07:59:23;5.88;;;5.38;;
3299;SDS011;1662;49.310;8.134;2022-11-09T08:01:48;5.20;;;4.80;;
3299;SDS011;1662;49.310;8.134;2022-11-09T08:04:14;5.27;;;4.90;;
3299;SDS011;1662;49.310;8.134;2022-11-09T08:06:40;5.85;;;5.40;;
3299;SDS011;1662;49.310;8.134;2022-11-09T08:09:08;6.10;;;5.70;;
3299;SDS011;1662;49.310;8.134;2022-11-09T08:11:33;5.13;;;4.72;;
3299;SDS011;1662;49.310;8.134;2022-11-09T08:13:59;5.10;;;4.60;;
3299;SDS011;1662;49.310;8.134;2022-11-09T08:16:24;5.13;;;4.37;;
3299;SDS011;1662;49.310;8.134;2022-11-09T08:18:50;4.20;;;3.90;;
3299;SDS011;1662;49.310;8.134;2022-11-09T08:21:16;4.50;;;4.10;;
3299;SDS011;1662;49.310;8.134;2022-11-09T08:23:42;5.10;;;4.60;;
3299;SDS011;1662;49.310;8.134;2022-11-09T08:26:08;5.30;;;4.90;;
3299;SDS011;1662;49.310;8.134;2022-11-09T08:28:35;5.50;;;4.90;;
3299;SDS011;1662;49.310;8.134;2022-11-09T08:31:02;4.57;;;4.18;;
3299;SDS011;1662;49.310;8.134;2022-11-09T08:33:30;4.05;;;3.75;;
3299;SDS011;1662;49.310;8.134;2022-11-09T08:35:58;3.45;;;3.25;;
3299;SDS011;1662;49.310;8.134;2022-11-09T08:38:24;3.23;;;3.03;;
3299;SDS011;1662;49.310;8.134;2022-11-09T08:40:54;4.33;;;3.20;;
3299;SDS011;1662;49.310;8.134;2022-11-09T08:43:21;2.42;;;2.33;;
3299;SDS011;1662;49.310;8.134;2022-11-09T08:45:47;4.85;;;2.70;;
3299;SDS011;1662;49.310;8.134;2022-11-09T08:48:13;2.73;;;2.43;;
3299;SDS011;1662;49.310;8.134;2022-11-09T08:50:38;2.90;;;2.03;;
3299;SDS011;1662;49.310;8.134;2022-11-09T08:53:04;3.20;;;2.10;;
3299;SDS011;1662;49.310;8.134;2022-11-09T08:55:33;1.98;;;1.88;;
3299;SDS011;1662;49.310;8.134;2022-11-09T08:58:01;2.00;;;1.90;;
3299;SDS011;1662;49.310;8.134;2022-11-09T09:00:28;1.63;;;1.53;;
3299;SDS011;1662;49.310;8.134;2022-11-09T09:02:54;1.80;;;1.70;;
3299;SDS011;1662;49.310;8.134;2022-11-09T09:05:19;1.60;;;1.50;;
3299;SDS011;1662;49.310;8.134;2022-11-09T09:07:45;1.80;;;1.70;;
3299;SDS011;1662;49.310;8.134;2022-11-09T09:10:11;1.75;;;1.70;;
3299;SDS011;1662;49.310;8.134;2022-11-09T09:12:37;2.20;;;1.70;;
3299;SDS011;1662;49.310;8.134;2022-11-09T09:15:03;1.85;;;1.75;;
3299;SDS011;1662;49.310;8.134;2022-11-09T09:17:29;1.60;;;1.50;;
3299;SDS011;1662;49.310;8.134;2022-11-09T09:19:55;2.00;;;1.90;;
3299;SDS011;1662;49.310;8.134;2022-11-09T09:22:20;2.60;;;2.00;;
3299;SDS011;1662;49.310;8.134;2022-11-09T09:24:48;2.07;;;1.87;;
3299;SDS011;1662;49.310;8.134;2022-11-09T09:27:14;6.67;;;2.47;;
3299;SDS011;1662;49.310;8.134;2022-11-09T09:29:39;3.87;;;2.07;;
3299;SDS011;1662;49.310;8.134;2022-11-09T09:32:05;2.00;;;1.90;;
3299;SDS011;1662;49.310;8.134;2022-11-09T09:34:34;1.90;;;1.80;;
3299;SDS011;1662;49.310;8.134;2022-11-09T09:36:59;2.00;;;1.90;;
3299;SDS011;1662;49.310;8.134;2022-11-09T09:39:27;2.13;;;2.00;;
3299;SDS011;1662;49.310;8.134;2022-11-09T09:41:54;1.90;;;1.80;;
3299;SDS011;1662;49.310;8.134;2022-11-09T09:46:50;1.92;;;1.73;;
3299;SDS011;1662;49.310;8.134;2022-11-09T09:49:27;1.70;;;1.60;;
3299;SDS011;1662;49.310;8.134;2022-11-09T09:52:08;3.72;;;2.08;;
3299;SDS011;1662;49.310;8.134;2022-11-09T09:57:20;2.40;;;1.88;;
3299;SDS011;1662;49.310;8.134;2022-11-09T09:59:48;2.83;;;1.90;;
3299;SDS011;1662;49.310;8.134;2022-11-09T10:04:47;2.20;;;2.00;;
3299;SDS011;1662;49.310;8.134;2022-11-09T10:24:09;2.30;;;2.20;;
3299;SDS011;1662;49.310;8.134;2022-11-09T10:29:16;2.00;;;1.90;;
3299;SDS011;1662;49.310;8.134;2022-11-09T10:31:52;3.70;;;2.60;;
3299;SDS011;1662;49.310;8.134;2022-11-09T10:34:31;2.47;;;2.28;;
3299;SDS011;1662;49.310;8.134;2022-11-09T10:42:58;2.88;;;2.67;;
3299;SDS011;1662;49.310;8.134;2022-11-09T10:45:31;2.40;;;2.30;;
3299;SDS011;1662;49.310;8.134;2022-11-09T10:48:03;3.20;;;2.08;;
3299;SDS011;1662;49.310;8.134;2022-11-09T10:50:49;2.60;;;2.40;;
3299;SDS011;1662;49.310;8.134;2022-11-09T10:53:19;4.32;;;2.50;;
3299;SDS011;1662;49.310;8.134;2022-11-09T10:58:34;3.90;;;2.10;;
3299;SDS011;1662;49.310;8.134;2022-11-09T11:01:23;2.60;;;1.85;;
3299;SDS011;1662;49.310;8.134;2022-11-09T11:03:53;2.10;;;1.90;;
3299;SDS011;1662;49.310;8.134;2022-11-09T11:08:46;2.90;;;1.60;;
3299;SDS011;1662;49.310;8.134;2022-11-09T11:11:18;3.80;;;1.80;;
3299;SDS011;1662;49.310;8.134;2022-11-09T11:13:46;3.17;;;2.40;;
3299;SDS011;1662;49.310;8.134;2022-11-09T11:16:13;3.00;;;2.17;;
3299;SDS011;1662;49.310;8.134;2022-11-09T11:18:48;3.03;;;2.25;;
3299;SDS011;1662;49.310;8.134;2022-11-09T11:21:15;4.43;;;2.70;;
3299;SDS011;1662;49.310;8.134;2022-11-09T11:23:41;4.10;;;2.93;;
3299;SDS011;1662;49.310;8.134;2022-11-09T11:28:58;3.88;;;2.20;;
3299;SDS011;1662;49.310;8.134;2022-11-09T11:31:25;5.00;;;4.60;;
3299;SDS011;1662;49.310;8.134;2022-11-09T11:33:51;4.97;;;4.57;;
3299;SDS011;1662;49.310;8.134;2022-11-09T11:46:47;2.00;;;1.90;;
3299;SDS011;1662;49.310;8.134;2022-11-09T11:55:03;3.45;;;1.90;;
3299;SDS011;1662;49.310;8.134;2022-11-09T11:58:01;3.20;;;2.10;;
3299;SDS011;1662;49.310;8.134;2022-11-09T12:00:39;3.10;;;1.60;;
3299;SDS011;1662;49.310;8.134;2022-11-09T12:11:08;2.33;;;2.08;;
3299;SDS011;1662;49.310;8.134;2022-11-09T12:14:14;4.00;;;1.90;;
3299;SDS011;1662;49.310;8.134;2022-11-09T12:17:00;5.13;;;2.00;;
3299;SDS011;1662;49.310;8.134;2022-11-09T12:30:13;2.65;;;1.80;;
3299;SDS011;1662;49.310;8.134;2022-11-09T12:40:36;2.67;;;1.90;;
3299;SDS011;1662;49.310;8.134;2022-11-09T12:45:40;4.20;;;1.95;;
3299;SDS011;1662;49.310;8.134;2022-11-09T12:50:50;2.47;;;1.60;;
3299;SDS011;1662;49.310;8.134;2022-11-09T12:53:18;2.97;;;1.80;;
3299;SDS011;1662;49.310;8.134;2022-11-09T12:56:06;4.68;;;1.70;;
3299;SDS011;1662;49.310;8.134;2022-11-09T12:58:47;2.03;;;1.90;;
3299;SDS011;1662;49.310;8.134;2022-11-09T13:03:52;2.10;;;1.65;;
3299;SDS011;1662;49.310;8.134;2022-11-09T13:06:23;2.10;;;1.80;;
3299;SDS011;1662;49.310;8.134;2022-11-09T13:09:03;2.65;;;2.13;;
3299;SDS011;1662;49.310;8.134;2022-11-09T13:16:52;3.20;;;1.70;;
3299;SDS011;1662;49.310;8.134;2022-11-09T13:27:40;2.03;;;1.70;;
3299;SDS011;1662;49.310;8.134;2022-11-09T13:30:53;2.60;;;1.80;;
3299;SDS011;1662;49.310;8.134;2022-11-09T13:38:15;2.07;;;1.70;;
3299;SDS011;1662;49.310;8.134;2022-11-09T13:40:46;2.80;;;1.83;;
3299;SDS011;1662;49.310;8.134;2022-11-09T13:50:56;3.90;;;2.22;;
3299;SDS011;1662;49.310;8.134;2022-11-09T13:53:46;4.10;;;2.10;;
3299;SDS011;1662;49.310;8.134;2022-11-09T13:59:15;2.65;;;2.17;;
3299;SDS011;1662;49.310;8.134;2022-11-09T14:01:48;3.13;;;1.50;;
3299;SDS011;1662;49.310;8.134;2022-11-09T14:06:58;2.50;;;1.90;;
3299;SDS011;1662;49.310;8.134;2022-11-09T14:12:57;3.80;;;2.30;;
3299;SDS011;1662;49.310;8.134;2022-11-09T14:23:37;1.80;;;1.70;;
3299;SDS011;1662;49.310;8.134;2022-11-09T14:26:07;2.20;;;2.00;;
3299;SDS011;1662;49.310;8.134;2022-11-09T14:28:34;2.72;;;1.60;;
3299;SDS011;1662;49.310;8.134;2022-11-09T14:31:01;1.38;;;1.30;;
3299;SDS011;1662;49.310;8.134;2022-11-09T14:35:54;2.70;;;2.00;;
3299;SDS011;1662;49.310;8.134;2022-11-09T14:40:49;3.23;;;3.00;;
3299;SDS011;1662;49.310;8.134;2022-11-09T14:46:02;4.20;;;2.50;;
3299;SDS011;1662;49.310;8.134;2022-11-09T14:48:30;2.80;;;2.60;;
3299;SDS011;1662;49.310;8.134;2022-11-09T14:50:58;2.50;;;1.80;;
3299;SDS011;1662;49.310;8.134;2022-11-09T14:55:52;3.00;;;1.70;;
3299;SDS011;1662;49.310;8.134;2022-11-09T14:58:20;2.40;;;1.70;;
3299;SDS011;1662;49.310;8.134;2022-11-09T15:03:40;2.83;;;2.63;;
3299;SDS011;1662;49.310;8.134;2022-11-09T15:06:10;2.60;;;2.50;;
3299;SDS011;1662;49.310;8.134;2022-11-09T15:08:37;3.50;;;3.30;;
3299;SDS011;1662;49.310;8.134;2022-11-09T15:11:12;4.50;;;2.72;;
3299;SDS011;1662;49.310;8.134;2022-11-09T15:13:38;2.90;;;2.70;;
3299;SDS011;1662;49.310;8.134;2022-11-09T15:16:06;2.38;;;2.17;;
3299;SDS011;1662;49.310;8.134;2022-11-09T15:18:33;2.80;;;2.08;;
3299;SDS011;1662;49.310;8.134;2022-11-09T15:24:02;2.33;;;1.80;;
3299;SDS011;1662;49.310;8.134;2022-11-09T15:26:35;4.70;;;2.38;;
3299;SDS011;1662;49.310;8.134;2022-11-09T15:29:24;4.60;;;2.70;;
3299;SDS011;1662;49.310;8.134;2022-11-09T15:32:23;2.20;;;1.70;;
3299;SDS011;1662;49.310;8.134;2022-11-09T15:34:51;2.00;;;1.90;;
3299;SDS011;1662;49.310;8.134;2022-11-09T15:37:19;4.00;;;1.80;;
3299;SDS011;1662;49.310;8.134;2022-11-09T15:39:49;2.13;;;2.00;;
3299;SDS011;1662;49.310;8.134;2022-11-09T15:42:15;3.83;;;1.88;;
3299;SDS011;1662;49.310;8.134;2022-11-09T15:44:41;2.63;;;2.42;;
3299;SDS011;1662;49.310;8.134;2022-11-09T15:47:18;2.80;;;2.05;;
3299;SDS011;1662;49.310;8.134;2022-11-09T15:49:48;1.90;;;1.60;;
3299;SDS011;1662;49.310;8.134;2022-11-09T15:52:17;1.77;;;1.67;;
3299;SDS011;1662;49.310;8.134;2022-11-09T15:54:43;2.50;;;1.80;;
3299;SDS011;1662;49.310;8.134;2022-11-09T15:57:10;3.53;;;2.00;;
3299;SDS011;1662;49.310;8.134;2022-11-09T15:59:43;1.60;;;1.50;;
3299;SDS011;1662;49.310;8.134;2022-11-09T16:02:10;2.30;;;1.92;;
3299;SDS011;1662;49.310;8.134;2022-11-09T16:04:37;1.60;;;1.50;;
3299;SDS011;1662;49.310;8.134;2022-11-09T16:07:03;1.63;;;1.50;;
3299;SDS011;1662;49.310;8.134;2022-11-09T16:09:29;2.20;;;1.90;;
3299;SDS011;1662;49.310;8.134;2022-11-09T16:11:55;3.10;;;1.83;;
3299;SDS011;1662;49.310;8.134;2022-11-09T16:14:24;1.60;;;1.50;;
3299;SDS011;1662;49.310;8.134;2022-11-09T16:16:49;3.15;;;2.70;;
3299;SDS011;1662;49.310;8.134;2022-11-09T16:19:15;3.58;;;2.58;;
3299;SDS011;1662;49.310;8.134;2022-11-09T16:21:41;1.60;;;1.50;;
3299;SDS011;1662;49.310;8.134;2022-11-09T16:24:09;2.50;;;2.20;;
3299;SDS011;1662;49.310;8.134;2022-11-09T16:26:35;2.42;;;2.20;;
3299;SDS011;1662;49.310;8.134;2022-11-09T16:29:00;3.10;;;2.08;;
3299;SDS011;1662;49.310;8.134;2022-11-09T16:31:26;4.07;;;1.70;;
3299;SDS011;1662;49.310;8.134;2022-11-09T16:33:51;1.90;;;1.80;;
3299;SDS011;1662;49.310;8.134;2022-11-09T16:36:21;3.88;;;3.17;;
3299;SDS011;1662;49.310;8.134;2022-11-09T16:38:51;4.32;;;2.90;;
3299;SDS011;1662;49.310;8.134;2022-11-09T16:41:20;3.10;;;2.90;;
3299;SDS011;1662;49.310;8.134;2022-11-09T16:43:47;2.53;;;2.40;;
3299;SDS011;1662;49.310;8.134;2022-11-09T16:46:18;2.20;;;2.10;;
3299;SDS011;1662;49.310;8.134;2022-11-09T16:48:49;3.00;;;2.70;;
3299;SDS011;1662;49.310;8.134;2022-11-09T16:51:16;2.60;;;2.50;;
3299;SDS011;1662;49.310;8.134;2022-11-09T16:53:46;4.85;;;3.10;;
3299;SDS011;1662;49.310;8.134;2022-11-09T16:56:14;4.10;;;3.70;;
3299;SDS011;1662;49.310;8.134;2022-11-09T16:58:41;9.77;;;8.98;;
3299;SDS011;1662;49.310;8.134;2022-11-09T17:01:06;7.50;;;6.80;;
3299;SDS011;1662;49.310;8.134;2022-11-09T17:03:34;4.60;;;4.30;;
3299;SDS011;1662;49.310;8.134;2022-11-09T17:06:00;5.75;;;4.32;;
3299;SDS011;1662;49.310;8.134;2022-11-09T17:08:26;4.57;;;4.00;;
3299;SDS011;1662;49.310;8.134;2022-11-09T17:10:52;3.78;;;3.00;;
3299;SDS011;1662;49.310;8.134;2022-11-09T17:13:18;6.93;;;6.33;;
3299;SDS011;1662;49.310;8.134;2022-11-09T17:15:44;48.33;;;43.30;;
3299;SDS011;1662;49.310;8.134;2022-11-09T17:18:14;6.65;;;5.95;;
3299;SDS011;1662;49.310;8.134;2022-11-09T17:20:43;4.88;;;4.30;;
3299;SDS011;1662;49.310;8.134;2022-11-09T17:23:11;4.40;;;4.10;;
3299;SDS011;1662;49.310;8.134;2022-11-09T17:25:38;4.20;;;3.80;;
3299;SDS011;1662;49.310;8.134;2022-11-09T17:28:04;3.10;;;2.90;;
3299;SDS011;1662;49.310;8.134;2022-11-09T17:30:30;4.35;;;2.00;;
3299;SDS011;1662;49.310;8.134;2022-11-09T17:32:56;3.20;;;3.00;;
3299;SDS011;1662;49.310;8.134;2022-11-09T17:35:22;3.57;;;3.00;;
3299;SDS011;1662;49.310;8.134;2022-11-09T17:37:48;4.78;;;4.00;;
3299;SDS011;1662;49.310;8.134;2022-11-09T17:40:18;4.35;;;3.50;;
3299;SDS011;1662;49.310;8.134;2022-11-09T17:42:45;3.97;;;3.58;;
3299;SDS011;1662;49.310;8.134;2022-11-09T17:45:11;5.00;;;2.60;;